createdAt,value
2023-03-21T00:00:29.120Z,7.35
2023-03-21T00:02:55.858Z,11.18
2023-03-21T00:05:22.790Z,8.00
2023-03-21T00:07:49.356Z,10.35
2023-03-21T00:13:03.299Z,9.05
2023-03-21T00:15:39.298Z,13.38
2023-03-21T00:18:11.565Z,10.30
2023-03-21T00:20:38.133Z,8.15
2023-03-21T00:23:04.934Z,6.43
2023-03-21T00:25:32.970Z,9.23
2023-03-21T00:28:08.048Z,7.50
2023-03-21T00:30:35.668Z,9.40
2023-03-21T00:33:12.049Z,9.10
2023-03-21T00:36:02.555Z,11.00
2023-03-21T00:38:31.552Z,9.68
2023-03-21T00:41:01.946Z,7.78
2023-03-21T00:43:31.326Z,6.75
2023-03-21T00:45:59.196Z,7.80
2023-03-21T00:48:27.150Z,10.15
2023-03-21T00:50:55.954Z,8.48
2023-03-21T00:53:23.252Z,7.07
2023-03-21T00:55:50.411Z,12.25
2023-03-21T00:58:17.679Z,17.63
2023-03-21T01:00:44.802Z,10.60
2023-03-21T01:03:23.789Z,8.88
2023-03-21T01:06:07.561Z,9.68
2023-03-21T01:08:54.791Z,10.18
2023-03-21T01:11:26.208Z,6.80
2023-03-21T01:13:57.809Z,7.95
2023-03-21T01:16:28.662Z,8.60
2023-03-21T01:18:56.088Z,11.27
2023-03-21T01:21:22.746Z,8.10
2023-03-21T01:23:49.318Z,8.65
2023-03-21T01:26:15.978Z,9.68
2023-03-21T01:28:44.044Z,13.38
2023-03-21T01:31:16.138Z,9.43
2023-03-21T01:33:43.743Z,9.88
2023-03-21T01:36:18.806Z,9.18
2023-03-21T01:38:47.975Z,4.63
2023-03-21T01:41:43.816Z,6.93
2023-03-21T01:44:17.368Z,5.47
2023-03-21T01:46:57.067Z,6.88
2023-03-21T01:49:41.948Z,8.60
2023-03-21T01:52:23.650Z,7.15
2023-03-21T01:54:56.128Z,4.28
2023-03-21T01:57:40.369Z,6.63
2023-03-21T02:00:13.730Z,10.38
2023-03-21T02:02:52.140Z,4.93
2023-03-21T02:05:22.576Z,6.65
2023-03-21T02:07:52.755Z,5.22
2023-03-21T02:10:19.981Z,5.80
2023-03-21T02:12:47.032Z,7.55
2023-03-21T02:15:14.811Z,6.10
2023-03-21T02:17:56.344Z,6.03
2023-03-21T02:20:51.182Z,5.82
2023-03-21T02:23:33.520Z,7.35
2023-03-21T02:26:03.242Z,12.73
2023-03-21T02:28:50.865Z,7.43
2023-03-21T02:31:32.653Z,5.15
2023-03-21T02:34:04.943Z,5.90
2023-03-21T02:36:48.983Z,8.75
2023-03-21T02:39:26.854Z,4.60
2023-03-21T02:42:05.592Z,4.20
2023-03-21T02:44:42.047Z,8.98
2023-03-21T02:47:18.924Z,6.13
2023-03-21T02:50:02.874Z,7.97
2023-03-21T02:52:39.090Z,5.38
2023-03-21T02:55:13.995Z,7.75
2023-03-21T03:00:21.574Z,5.70
2023-03-21T03:02:54.491Z,5.35
2023-03-21T03:05:29.706Z,8.70
2023-03-21T03:08:02.600Z,5.57
2023-03-21T03:10:42.618Z,6.70
2023-03-21T03:13:39.620Z,7.88
2023-03-21T03:16:06.281Z,6.60
2023-03-21T03:18:56.488Z,6.18
2023-03-21T03:21:32.903Z,4.70
2023-03-21T03:24:10.158Z,11.77
2023-03-21T03:26:41.643Z,9.23
2023-03-21T03:29:12.738Z,6.45
2023-03-21T03:31:44.436Z,5.50
2023-03-21T03:34:17.008Z,7.57
2023-03-21T03:36:48.223Z,7.40
2023-03-21T03:39:15.976Z,5.50
2023-03-21T03:42:07.837Z,5.85
2023-03-21T03:44:36.364Z,8.32
2023-03-21T03:47:11.903Z,9.50
2023-03-21T03:50:01.039Z,3.33
2023-03-21T03:52:31.747Z,5.43
2023-03-21T03:54:58.988Z,5.97
2023-03-21T03:57:27.171Z,5.55
2023-03-21T03:59:53.805Z,6.18
2023-03-21T04:02:20.533Z,8.43
2023-03-21T04:04:47.506Z,5.30
2023-03-21T04:07:14.240Z,8.80
2023-03-21T04:09:44.706Z,6.88
2023-03-21T04:12:13.035Z,8.35
2023-03-21T04:14:45.695Z,7.40
2023-03-21T04:17:13.665Z,6.82
2023-03-21T04:19:40.233Z,5.07
2023-03-21T04:22:07.334Z,7.63
2023-03-21T04:24:34.329Z,5.30
2023-03-21T04:27:01.105Z,5.60
2023-03-21T04:29:29.807Z,5.30
2023-03-21T04:31:56.766Z,4.45
2023-03-21T04:34:28.034Z,6.68
2023-03-21T04:36:55.745Z,5.10
2023-03-21T04:39:22.587Z,6.45
2023-03-21T04:41:49.959Z,10.15
2023-03-21T04:44:17.455Z,6.07
2023-03-21T04:46:44.071Z,11.88
2023-03-21T04:49:10.886Z,8.45
2023-03-21T04:51:38.123Z,9.75
2023-03-21T04:54:05.939Z,5.60
2023-03-21T04:56:33.938Z,10.02
2023-03-21T04:59:03.794Z,7.20
2023-03-21T05:01:30.957Z,13.13
2023-03-21T05:03:59.492Z,4.60
2023-03-21T05:06:27.814Z,5.03
2023-03-21T05:09:05.632Z,8.75
2023-03-21T05:11:35.889Z,6.97
2023-03-21T05:14:02.412Z,5.35
2023-03-21T05:16:30.879Z,5.30
2023-03-21T05:19:05.010Z,7.53
2023-03-21T05:21:42.053Z,6.97
2023-03-21T05:24:14.506Z,5.55
2023-03-21T05:26:42.650Z,5.60
2023-03-21T05:29:09.833Z,11.98
2023-03-21T05:31:36.592Z,5.45
2023-03-21T05:34:03.393Z,9.32
2023-03-21T05:36:30.162Z,7.85
2023-03-21T05:38:56.666Z,8.10
2023-03-21T05:41:23.272Z,5.85
2023-03-21T05:43:49.776Z,9.35
2023-03-21T05:46:16.329Z,10.10
2023-03-21T05:48:42.901Z,8.23
2023-03-21T05:51:09.671Z,11.38
2023-03-21T05:53:36.230Z,7.32
2023-03-21T05:56:03.243Z,10.18
2023-03-21T05:58:30.257Z,7.28
2023-03-21T06:00:57.332Z,9.90
2023-03-21T06:03:24.946Z,12.65
2023-03-21T06:05:51.568Z,8.32
2023-03-21T06:08:18.099Z,8.95
2023-03-21T06:10:44.763Z,10.52
2023-03-21T06:13:11.344Z,18.70
2023-03-21T06:15:38.221Z,8.90
2023-03-21T06:18:04.984Z,10.60
2023-03-21T06:20:31.684Z,13.55
2023-03-21T06:22:58.545Z,8.55
2023-03-21T06:25:25.294Z,8.38
2023-03-21T06:27:51.860Z,8.57
2023-03-21T06:30:18.653Z,12.07
2023-03-21T06:32:45.361Z,8.88
2023-03-21T06:35:11.925Z,9.15
2023-03-21T06:37:38.539Z,11.30
2023-03-21T06:40:08.403Z,4.93
2023-03-21T06:42:35.093Z,11.15
2023-03-21T06:45:01.869Z,7.22
2023-03-21T06:47:28.729Z,5.47
2023-03-21T06:49:55.332Z,11.70
2023-03-21T06:52:21.870Z,12.25
2023-03-21T06:54:48.437Z,10.05
2023-03-21T06:57:15.121Z,7.35
2023-03-21T06:59:42.050Z,7.32
2023-03-21T07:02:10.964Z,10.38
2023-03-21T07:04:37.539Z,9.75
2023-03-21T07:07:04.072Z,9.85
2023-03-21T07:09:31.580Z,9.95
2023-03-21T07:11:58.304Z,5.30
2023-03-21T07:14:25.617Z,7.00
2023-03-21T07:16:52.234Z,5.88
2023-03-21T07:19:18.920Z,6.22
2023-03-21T07:21:45.799Z,8.68
2023-03-21T07:24:12.363Z,10.55
2023-03-21T07:26:38.940Z,7.28
2023-03-21T07:29:05.450Z,8.05
2023-03-21T07:31:33.046Z,6.80
2023-03-21T07:33:59.656Z,10.52
2023-03-21T07:36:26.512Z,15.60
2023-03-21T07:38:53.037Z,8.50
2023-03-21T07:41:19.570Z,14.65
2023-03-21T07:43:46.175Z,12.77
2023-03-21T07:46:12.865Z,9.45
2023-03-21T07:48:39.445Z,9.50
2023-03-21T07:51:06.588Z,6.55
2023-03-21T07:53:33.627Z,7.78
2023-03-21T07:56:00.377Z,6.25
2023-03-21T07:58:28.546Z,14.15
2023-03-21T08:00:58.711Z,12.00
2023-03-21T08:03:26.542Z,11.52
2023-03-21T08:05:53.252Z,10.32
2023-03-21T08:08:19.908Z,16.65
2023-03-21T08:10:46.894Z,12.43
2023-03-21T08:13:13.617Z,20.38
2023-03-21T08:15:42.368Z,18.25
2023-03-21T08:18:10.142Z,8.07
2023-03-21T08:20:36.847Z,14.50
2023-03-21T08:23:04.111Z,8.60
2023-03-21T08:25:30.899Z,7.53
2023-03-21T08:27:57.426Z,5.85
2023-03-21T08:30:28.194Z,8.73
2023-03-21T08:33:01.300Z,5.93
2023-03-21T08:35:29.341Z,7.78
2023-03-21T08:37:55.888Z,16.80
2023-03-21T08:40:22.410Z,8.38
2023-03-21T08:42:49.077Z,15.00
2023-03-21T08:45:17.271Z,8.98
2023-03-21T08:47:43.989Z,22.27
2023-03-21T08:50:13.559Z,14.73
2023-03-21T08:52:40.228Z,7.75
2023-03-21T08:55:07.545Z,9.02
2023-03-21T08:57:34.086Z,8.35
2023-03-21T09:00:00.633Z,12.07
2023-03-21T09:02:27.227Z,12.75
2023-03-21T09:04:55.013Z,8.00
2023-03-21T09:07:22.293Z,8.02
2023-03-21T09:09:58.061Z,8.00
2023-03-21T09:12:29.846Z,7.70
2023-03-21T09:14:56.536Z,11.15
2023-03-21T09:17:23.117Z,10.70
2023-03-21T09:19:50.885Z,12.63
2023-03-21T09:22:17.968Z,11.00
2023-03-21T09:24:47.638Z,12.23
2023-03-21T09:27:15.806Z,12.85
2023-03-21T09:29:45.081Z,11.60
2023-03-21T09:32:12.247Z,9.68
2023-03-21T09:34:41.258Z,13.40
2023-03-21T09:37:13.150Z,10.25
2023-03-21T09:39:41.254Z,12.10
2023-03-21T09:42:26.675Z,6.57
2023-03-21T09:44:53.704Z,8.65
2023-03-21T09:47:29.005Z,7.00
2023-03-21T09:50:13.693Z,9.65
2023-03-21T09:52:54.656Z,11.13
2023-03-21T09:55:26.664Z,15.20
2023-03-21T09:58:05.055Z,13.15
2023-03-21T10:00:47.589Z,7.05
2023-03-21T10:03:18.074Z,10.15
2023-03-21T10:05:46.889Z,10.10
2023-03-21T10:08:19.654Z,12.77
2023-03-21T10:10:56.710Z,12.88
2023-03-21T10:13:27.760Z,8.38
2023-03-21T10:16:00.225Z,11.85
2023-03-21T10:18:30.935Z,9.05
2023-03-21T10:20:57.545Z,11.85
2023-03-21T10:23:29.456Z,7.18
2023-03-21T10:25:59.893Z,9.65
2023-03-21T10:28:49.932Z,9.35
2023-03-21T10:31:22.187Z,12.93
2023-03-21T10:33:50.701Z,7.03
2023-03-21T10:36:27.236Z,11.13
2023-03-21T10:39:02.128Z,8.43
2023-03-21T10:41:28.688Z,10.90
2023-03-21T10:44:08.974Z,9.43
2023-03-21T10:46:36.322Z,10.35
2023-03-21T10:49:03.521Z,19.73
2023-03-21T10:51:36.944Z,7.88
2023-03-21T10:54:12.686Z,7.43
2023-03-21T10:56:44.887Z,11.60
2023-03-21T10:59:20.460Z,9.98
2023-03-21T11:01:53.177Z,9.52
2023-03-21T11:04:23.923Z,11.75
2023-03-21T11:06:57.047Z,8.93
2023-03-21T11:09:26.145Z,11.52
2023-03-21T11:12:02.751Z,8.45
2023-03-21T11:14:42.184Z,7.28
2023-03-21T11:17:17.669Z,10.30
2023-03-21T11:20:00.851Z,11.35
2023-03-21T11:22:37.203Z,9.07
2023-03-21T11:25:07.804Z,9.20
2023-03-21T11:27:34.677Z,15.88
2023-03-21T11:30:05.069Z,6.32
2023-03-21T11:32:37.291Z,9.45
2023-03-21T11:35:19.749Z,7.53
2023-03-21T11:37:51.205Z,7.82
2023-03-21T11:40:25.150Z,12.27
2023-03-21T11:42:56.616Z,6.15
2023-03-21T11:45:33.080Z,7.78
2023-03-21T11:48:02.360Z,11.90
2023-03-21T11:50:39.918Z,9.35
2023-03-21T11:53:28.365Z,5.47
2023-03-21T11:56:25.913Z,9.77
2023-03-21T11:59:33.867Z,7.38
2023-03-21T12:02:14.586Z,9.18
2023-03-21T12:05:05.462Z,5.43
2023-03-21T12:07:37.883Z,6.05
2023-03-21T12:10:26.212Z,7.88
2023-03-21T12:12:58.470Z,10.25
2023-03-21T12:15:44.284Z,7.30
2023-03-21T12:18:34.177Z,8.43
2023-03-21T12:21:18.415Z,7.88
2023-03-21T12:24:03.842Z,5.43
2023-03-21T12:27:02.844Z,12.70
2023-03-21T12:30:03.789Z,7.32
2023-03-21T12:32:51.660Z,7.85
2023-03-21T12:35:44.605Z,13.93
2023-03-21T12:38:14.166Z,13.55
2023-03-21T12:40:55.730Z,7.30
2023-03-21T12:43:27.110Z,6.60
2023-03-21T12:46:00.399Z,6.75
2023-03-21T12:48:43.421Z,16.58
2023-03-21T12:51:16.862Z,5.70
2023-03-21T12:53:53.125Z,7.37
2023-03-21T12:56:38.106Z,3.83
2023-03-21T12:59:54.630Z,5.10
2023-03-21T13:02:34.854Z,10.15
2023-03-21T13:05:07.368Z,8.15
2023-03-21T13:07:39.552Z,4.75
2023-03-21T13:10:15.662Z,9.35
2023-03-21T13:12:49.376Z,7.93
2023-03-21T13:15:44.420Z,6.15
2023-03-21T13:20:57.242Z,21.17
2023-03-21T13:23:25.896Z,3.78
2023-03-21T13:25:55.736Z,2.97
2023-03-21T13:28:27.441Z,4.40
2023-03-21T13:31:21.129Z,4.18
2023-03-21T13:33:53.639Z,3.35
2023-03-21T13:36:29.129Z,4.45
2023-03-21T13:39:02.041Z,5.80
2023-03-21T13:41:34.290Z,7.13
2023-03-21T13:44:03.571Z,6.13
2023-03-21T13:46:32.550Z,6.90
2023-03-21T13:49:14.984Z,3.33
2023-03-21T13:51:51.340Z,3.67
2023-03-21T13:54:24.339Z,6.40
2023-03-21T13:57:04.958Z,5.10
2023-03-21T13:59:44.744Z,4.50
2023-03-21T14:02:33.444Z,3.80
2023-03-21T14:05:07.174Z,4.03
2023-03-21T14:07:40.343Z,5.47
2023-03-21T14:10:18.627Z,7.93
2023-03-21T14:12:46.291Z,3.28
2023-03-21T14:15:29.669Z,6.82
2023-03-21T14:18:00.035Z,2.50
2023-03-21T14:20:38.421Z,5.00
2023-03-21T14:23:07.320Z,4.80
2023-03-21T14:25:46.687Z,3.63
2023-03-21T14:28:24.338Z,3.20
2023-03-21T14:30:58.952Z,3.03
2023-03-21T14:33:44.286Z,3.50
2023-03-21T14:36:15.530Z,3.03
2023-03-21T14:38:42.828Z,4.75
2023-03-21T14:41:22.632Z,3.92
2023-03-21T14:44:01.943Z,3.80
2023-03-21T14:46:28.761Z,4.45
2023-03-21T14:48:55.343Z,4.85
2023-03-21T14:51:24.306Z,7.43
2023-03-21T14:53:50.893Z,4.38
2023-03-21T14:56:23.225Z,4.72
2023-03-21T14:58:50.350Z,2.88
2023-03-21T15:01:28.848Z,5.22
2023-03-21T15:03:55.788Z,4.95
2023-03-21T15:06:22.398Z,2.92
2023-03-21T15:09:04.026Z,6.40
2023-03-21T15:11:34.085Z,5.47
2023-03-21T15:14:04.980Z,1.77
2023-03-21T15:16:32.281Z,4.45
2023-03-21T15:19:01.851Z,6.75
2023-03-21T15:21:32.020Z,1.77
2023-03-21T15:24:13.838Z,4.38
2023-03-21T15:26:44.939Z,5.90
2023-03-21T15:29:14.058Z,4.45
2023-03-21T15:31:41.089Z,3.58
2023-03-21T15:34:13.564Z,9.02
2023-03-21T15:36:48.551Z,2.33
2023-03-21T15:39:17.814Z,7.40
2023-03-21T15:42:07.256Z,4.57
2023-03-21T15:44:35.598Z,7.50
2023-03-21T15:47:02.538Z,3.00
2023-03-21T15:49:32.533Z,4.45
2023-03-21T15:52:13.125Z,2.03
2023-03-21T15:54:42.622Z,5.68
2023-03-21T15:57:35.861Z,1.85
2023-03-21T16:00:22.676Z,4.93
2023-03-21T16:02:55.428Z,6.90
2023-03-21T16:05:27.495Z,5.75
2023-03-21T16:07:59.058Z,6.18
2023-03-21T16:10:32.024Z,3.38
2023-03-21T16:12:58.865Z,4.90
2023-03-21T16:15:26.894Z,5.40
2023-03-21T16:18:06.224Z,4.82
2023-03-21T16:20:37.635Z,8.00
2023-03-21T16:23:04.489Z,4.88
2023-03-21T16:25:32.264Z,4.32
2023-03-21T16:27:59.162Z,4.28
2023-03-21T16:30:25.760Z,2.20
2023-03-21T16:32:52.292Z,2.97
2023-03-21T16:35:21.639Z,5.60
2023-03-21T16:37:48.897Z,3.40
2023-03-21T16:40:26.384Z,2.75
2023-03-21T16:42:53.019Z,2.13
2023-03-21T16:45:19.627Z,3.38
2023-03-21T16:47:47.358Z,6.30
2023-03-21T16:50:22.785Z,4.93
2023-03-21T16:52:49.415Z,5.25
2023-03-21T16:55:16.023Z,2.50
2023-03-21T16:57:43.189Z,4.55
2023-03-21T17:00:13.360Z,7.20
2023-03-21T17:02:40.016Z,7.47
2023-03-21T17:05:07.605Z,3.22
2023-03-21T17:07:34.128Z,3.67
2023-03-21T17:10:00.687Z,3.10
2023-03-21T17:12:27.224Z,3.33
2023-03-21T17:14:53.805Z,2.60
2023-03-21T17:17:21.614Z,4.80
2023-03-21T17:19:48.432Z,2.90
2023-03-21T17:22:15.055Z,4.88
2023-03-21T17:24:41.780Z,3.13
2023-03-21T17:27:13.274Z,2.13
2023-03-21T17:29:39.918Z,5.03
2023-03-21T17:32:06.536Z,2.25
2023-03-21T17:34:33.036Z,7.65
2023-03-21T17:36:59.652Z,2.17
2023-03-21T17:39:28.759Z,3.25
2023-03-21T17:41:56.874Z,3.20
2023-03-21T17:44:23.557Z,2.63
2023-03-21T17:46:52.002Z,2.53
2023-03-21T17:49:19.971Z,5.93
2023-03-21T17:51:47.083Z,2.42
2023-03-21T17:54:13.876Z,2.60
2023-03-21T17:56:41.826Z,3.10
2023-03-21T17:59:12.187Z,4.35
2023-03-21T18:01:38.747Z,2.65
2023-03-21T18:04:05.479Z,6.18
2023-03-21T18:06:34.396Z,3.17
2023-03-21T18:09:04.595Z,3.35
2023-03-21T18:11:31.209Z,7.05
2023-03-21T18:14:13.768Z,2.75
2023-03-21T18:16:42.755Z,4.07
2023-03-21T18:19:12.669Z,3.58
2023-03-21T18:21:45.365Z,2.90
2023-03-21T18:24:12.901Z,7.97
2023-03-21T18:26:39.661Z,4.72
2023-03-21T18:32:05.522Z,6.15
2023-03-21T18:34:34.270Z,5.82
2023-03-21T18:37:03.756Z,8.43
2023-03-21T18:39:32.187Z,8.55
2023-03-21T18:42:02.472Z,4.95
2023-03-21T18:44:30.458Z,6.78
2023-03-21T18:46:58.375Z,5.13
2023-03-21T18:50:06.013Z,7.00
2023-03-21T18:52:12.383Z,5.55
2023-03-21T18:54:39.639Z,7.32
2023-03-21T18:59:56.277Z,10.10
2023-03-21T19:02:22.888Z,7.53
2023-03-21T19:04:49.416Z,8.75
2023-03-21T19:07:16.043Z,9.48
2023-03-21T19:10:05.202Z,8.60
2023-03-21T19:12:29.737Z,7.45
2023-03-21T19:14:56.663Z,10.50
2023-03-21T19:20:11.991Z,11.55
2023-03-21T19:22:38.536Z,7.72
2023-03-21T19:25:05.865Z,16.23
2023-03-21T19:27:34.305Z,16.02
2023-03-21T19:30:15.858Z,8.23
2023-03-21T19:32:44.217Z,7.13
2023-03-21T19:35:11.546Z,10.20
2023-03-21T19:37:38.078Z,7.32
2023-03-21T19:40:06.945Z,10.48
2023-03-21T19:42:36.240Z,8.45
2023-03-21T19:45:05.374Z,11.05
2023-03-21T19:47:32.031Z,9.77
2023-03-21T19:52:46.177Z,9.00
2023-03-21T19:55:14.882Z,5.90
2023-03-21T19:57:41.831Z,8.15
2023-03-21T20:00:11.380Z,9.88
2023-03-21T20:02:38.234Z,18.02
2023-03-21T20:05:08.364Z,8.95
2023-03-21T20:07:35.221Z,8.38
2023-03-21T20:10:02.584Z,12.15
2023-03-21T20:12:29.358Z,9.68
2023-03-21T20:15:15.840Z,12.30
2023-03-21T20:17:43.096Z,14.85
2023-03-21T20:20:10.329Z,11.70
2023-03-21T20:23:05.328Z,11.82
2023-03-21T20:25:23.390Z,9.80
2023-03-21T20:28:09.290Z,11.50
2023-03-21T20:30:36.764Z,10.98
2023-03-21T20:33:04.319Z,7.93
2023-03-21T20:36:16.409Z,10.32
2023-03-21T20:38:20.528Z,11.73
2023-03-21T20:40:48.030Z,13.60
2023-03-21T20:44:02.204Z,10.55
2023-03-21T20:46:06.343Z,18.27
2023-03-21T20:48:34.549Z,19.17
2023-03-21T20:52:14.720Z,19.88
2023-03-21T20:53:57.747Z,18.98
2023-03-21T20:56:24.420Z,21.38
2023-03-21T20:59:05.034Z,27.08
2023-03-21T21:01:38.528Z,25.17
2023-03-21T21:04:05.852Z,24.30
2023-03-21T21:06:33.027Z,23.65
2023-03-21T21:09:00.200Z,24.83
2023-03-21T21:12:05.065Z,23.50
2023-03-21T21:14:16.035Z,29.65
2023-03-21T21:16:42.856Z,25.27
2023-03-21T21:19:09.915Z,29.60
2023-03-21T21:21:36.548Z,25.10
2023-03-21T21:24:03.426Z,26.13
2023-03-21T21:26:29.937Z,25.30
2023-03-21T21:28:58.701Z,19.48
2023-03-21T21:31:25.261Z,20.80
2023-03-21T21:33:54.144Z,22.48
2023-03-21T21:36:22.042Z,18.15
2023-03-21T21:38:49.721Z,18.55
2023-03-21T21:41:21.161Z,19.20
2023-03-21T21:43:48.469Z,23.17
2023-03-21T21:46:15.172Z,21.40
2023-03-21T21:48:43.172Z,22.23
2023-03-21T21:51:10.267Z,22.13
2023-03-21T21:53:37.112Z,18.25
2023-03-21T21:56:06.557Z,24.63
2023-03-21T21:58:33.865Z,22.55
2023-03-21T22:01:01.804Z,24.80
2023-03-21T22:03:36.447Z,23.75
2023-03-21T22:08:31.287Z,17.77
2023-03-21T22:11:00.385Z,23.23
2023-03-21T22:13:27.454Z,22.40
2023-03-21T22:15:54.213Z,24.85
2023-03-21T22:18:21.478Z,20.23
2023-03-21T22:20:48.189Z,20.60
2023-03-21T22:23:14.758Z,21.48
2023-03-21T22:25:43.355Z,29.35
2023-03-21T22:28:10.476Z,26.30
2023-03-21T22:30:37.226Z,26.83
2023-03-21T22:33:09.507Z,22.60
2023-03-21T22:35:37.190Z,27.13
2023-03-21T22:38:03.796Z,19.08
2023-03-21T22:40:30.346Z,18.42
2023-03-21T22:42:57.049Z,20.65
2023-03-21T22:45:23.659Z,18.13
2023-03-21T22:47:50.465Z,16.98
2023-03-21T22:50:17.071Z,16.75
2023-03-21T22:52:43.599Z,18.05
2023-03-21T22:55:12.606Z,17.20
2023-03-21T22:57:39.093Z,14.73
2023-03-21T23:00:16.316Z,16.38
2023-03-21T23:02:42.852Z,11.52
2023-03-21T23:05:11.077Z,13.85
2023-03-21T23:07:38.447Z,15.15
2023-03-21T23:10:06.188Z,19.73
2023-03-21T23:12:32.884Z,13.48
2023-03-21T23:15:00.821Z,16.98
2023-03-21T23:17:28.549Z,15.52
2023-03-21T23:19:55.090Z,11.85
2023-03-21T23:22:21.621Z,17.15
2023-03-21T23:24:49.048Z,14.65
2023-03-21T23:27:18.249Z,12.48
2023-03-21T23:29:45.397Z,9.93
2023-03-21T23:32:12.542Z,13.88
2023-03-21T23:34:39.133Z,15.23
2023-03-21T23:37:06.890Z,11.15
2023-03-21T23:39:34.395Z,17.27
2023-03-21T23:42:01.349Z,16.88
2023-03-21T23:44:28.305Z,17.67
2023-03-21T23:46:54.968Z,15.63
2023-03-21T23:49:21.604Z,20.45
2023-03-21T23:51:48.212Z,16.85
2023-03-21T23:54:14.962Z,17.13
2023-03-21T23:56:42.074Z,14.13
2023-03-21T23:59:08.665Z,16.48
